Time;durP1;ratioP1;P1;durP2;ratioP2;P2;SDS_P1;SDS_P2;PMS_P1;PMS_P2;Temp;Humidity;BMP_temperature;BMP_pressure;BME280_temperature;BME280_humidity;BME280_pressure;Samples;Min_cycle;Max_cycle;Signal;HPM_P1;HPM_P2
2023/03/21 00:01:16;;;;;;;44.47;26.88;;;9.80;99.90;;;;;;5050035;28;20052;-38
2023/03/21 00:03:43;;;;;;;47.75;27.50;;;9.80;99.90;;;;;;5052973;28;20052;-37
2023/03/21 00:06:12;;;;;;;45.75;26.67;;;9.80;99.90;;;;;;5054296;28;20130;-37
2023/03/21 00:08:39;;;;;;;48.30;27.92;;;9.80;99.90;;;;;;5053606;28;20140;-38
2023/03/21 00:11:07;;;;;;;44.20;27.52;;;9.80;99.90;;;;;;5053853;28;20080;-37
2023/03/21 00:13:37;;;;;;;50.50;28.45;;;9.80;99.90;;;;;;5050866;28;20095;-38
2023/03/21 00:16:05;;;;;;;45.22;27.52;;;9.80;99.90;;;;;;5065193;28;20049;-37
2023/03/21 00:18:31;;;;;;;46.03;27.42;;;9.80;99.90;;;;;;5070936;28;20052;-37
2023/03/21 00:20:59;;;;;;;45.05;28.70;;;9.80;99.90;;;;;;5052806;28;20115;-37
2023/03/21 00:23:27;;;;;;;40.50;27.85;;;9.80;99.90;;;;;;5053334;28;20076;-37
2023/03/21 00:25:54;;;;;;;38.92;26.10;;;9.80;99.90;;;;;;5053040;28;20128;-37
2023/03/21 00:28:21;;;;;;;39.25;26.50;;;9.80;99.90;;;;;;5054179;28;20049;-37
2023/03/21 00:30:47;;;;;;;40.05;27.35;;;9.80;99.90;;;;;;5055496;28;20106;-38
2023/03/21 00:33:14;;;;;;;37.72;26.23;;;9.80;99.90;;;;;;5052912;28;20053;-37
2023/03/21 00:35:43;;;;;;;34.72;25.67;;;9.80;99.90;;;;;;5052865;28;20052;-37
2023/03/21 00:38:10;;;;;;;41.08;27.60;;;9.80;99.90;;;;;;5063894;28;20114;-37
2023/03/21 00:40:38;;;;;;;40.90;26.85;;;9.80;99.90;;;;;;5053413;28;20053;-37
2023/03/21 00:43:05;;;;;;;37.65;25.92;;;9.80;99.90;;;;;;5052640;28;20577;-38
2023/03/21 00:45:32;;;;;;;42.10;26.95;;;9.80;99.90;;;;;;5057280;28;20103;-37
2023/03/21 00:47:58;;;;;;;43.28;27.77;;;9.80;99.90;;;;;;5054994;28;20053;-38
2023/03/21 00:50:25;;;;;;;40.92;26.58;;;9.80;99.90;;;;;;5043778;28;20081;-38
2023/03/21 00:52:52;;;;;;;39.03;26.10;;;9.80;99.90;;;;;;5048744;28;20419;-38
2023/03/21 00:55:19;;;;;;;38.55;25.83;;;9.90;99.90;;;;;;5052675;28;20103;-38
2023/03/21 00:57:48;;;;;;;35.88;24.58;;;9.90;99.90;;;;;;5074284;28;20496;-38
2023/03/21 01:00:16;;;;;;;41.60;24.10;;;9.90;99.90;;;;;;5036893;28;20095;-38
2023/03/21 01:02:55;;;;;;;36.75;23.92;;;9.90;99.90;;;;;;5051333;28;20041;-38
2023/03/21 01:06:01;;;;;;;36.38;23.75;;;9.90;99.90;;;;;;5057962;28;20049;-38
2023/03/21 01:08:10;;;;;;;33.15;22.77;;;9.80;99.90;;;;;;5051896;28;20111;-38
2023/03/21 01:10:38;;;;;;;33.83;21.63;;;9.80;99.90;;;;;;5052737;28;20129;-38
2023/03/21 01:13:06;;;;;;;32.33;21.45;;;9.90;99.90;;;;;;5051840;28;20084;-37
2023/03/21 01:15:33;;;;;;;33.75;21.92;;;9.90;99.90;;;;;;5051488;28;20061;-37
2023/03/21 01:18:00;;;;;;;36.97;23.00;;;9.90;99.90;;;;;;5049805;28;20566;-37
2023/03/21 01:20:27;;;;;;;33.50;21.33;;;9.90;99.90;;;;;;5052326;28;20138;-38
2023/03/21 01:22:54;;;;;;;32.40;22.15;;;9.90;99.90;;;;;;5051237;28;20088;-37
2023/03/21 01:25:20;;;;;;;39.83;23.35;;;9.90;99.90;;;;;;5049821;28;20103;-37
2023/03/21 01:27:47;;;;;;;37.50;23.95;;;9.90;99.90;;;;;;5055490;28;20480;-38
2023/03/21 01:30:16;;;;;;;39.95;23.70;;;9.90;99.90;;;;;;5056412;28;20047;-37
2023/03/21 01:32:42;;;;;;;39.47;24.23;;;9.90;99.90;;;;;;5067835;28;20122;-37
2023/03/21 01:35:09;;;;;;;30.00;22.00;;;9.90;99.90;;;;;;5055856;28;20110;-37
2023/03/21 01:37:36;;;;;;;39.67;22.92;;;9.90;99.90;;;;;;5052319;28;20056;-37
2023/03/21 01:40:04;;;;;;;32.45;23.08;;;9.90;99.90;;;;;;5058797;28;20044;-37
2023/03/21 01:42:31;;;;;;;34.30;22.70;;;9.90;99.90;;;;;;5056775;28;20056;-37
2023/03/21 01:45:05;;;;;;;35.20;23.65;;;9.90;99.90;;;;;;5052057;28;20057;-37
2023/03/21 01:47:34;;;;;;;34.05;22.98;;;9.90;99.90;;;;;;5051509;28;20051;-37
2023/03/21 01:50:01;;;;;;;39.63;24.20;;;9.90;99.90;;;;;;5052097;28;20102;-37
2023/03/21 01:52:29;;;;;;;35.05;23.67;;;9.90;99.90;;;;;;5050139;28;20076;-37
2023/03/21 01:54:56;;;;;;;38.40;24.40;;;9.90;99.90;;;;;;5052065;28;20048;-37
2023/03/21 01:57:31;;;;;;;39.17;24.33;;;9.90;99.90;;;;;;5056981;28;20041;-37
2023/03/21 01:59:58;;;;;;;40.40;25.17;;;9.90;99.90;;;;;;5050289;28;20550;-37
2023/03/21 02:02:27;;;;;;;38.85;25.40;;;9.90;99.90;;;;;;5049906;28;20100;-38
2023/03/21 02:04:57;;;;;;;39.35;24.98;;;10.00;99.90;;;;;;5051424;28;20045;-37
2023/03/21 02:07:24;;;;;;;37.20;24.95;;;9.90;99.90;;;;;;5049651;28;20053;-37
2023/03/21 02:09:51;;;;;;;43.17;26.00;;;9.90;99.90;;;;;;5051616;28;20462;-37
2023/03/21 02:12:18;;;;;;;43.22;26.15;;;9.90;99.90;;;;;;5049946;28;20041;-37
2023/03/21 02:14:45;;;;;;;41.47;25.52;;;9.90;99.90;;;;;;5054654;28;20084;-37
2023/03/21 02:17:15;;;;;;;45.25;27.48;;;9.90;99.90;;;;;;5049443;28;20044;-37
2023/03/21 02:20:15;;;;;;;41.13;26.08;;;9.90;99.90;;;;;;5063625;28;20081;-37
2023/03/21 02:23:05;;;;;;;47.55;27.45;;;9.90;99.90;;;;;;5052202;28;20161;-37
2023/03/21 02:25:47;;;;;;;39.95;25.45;;;9.90;99.90;;;;;;5058881;28;20106;-38
2023/03/21 02:28:15;;;;;;;44.30;26.33;;;9.90;99.90;;;;;;5049023;28;20041;-37
2023/03/21 02:30:51;;;;;;;37.47;24.70;;;9.90;99.90;;;;;;5051458;28;20187;-38
2023/03/21 02:33:51;;;;;;;39.25;24.85;;;9.90;99.90;;;;;;5051189;28;20103;-37
2023/03/21 02:36:25;;;;;;;37.55;24.17;;;9.90;99.90;;;;;;5044479;28;20099;-37
2023/03/21 02:38:55;;;;;;;39.35;25.42;;;9.80;99.90;;;;;;5050115;28;20103;-37
2023/03/21 02:41:28;;;;;;;35.95;24.27;;;9.90;99.90;;;;;;5050324;28;20132;-38
2023/03/21 02:43:56;;;;;;;39.58;25.65;;;9.90;99.90;;;;;;5055357;28;20080;-37
2023/03/21 02:46:26;;;;;;;38.80;25.92;;;9.90;99.90;;;;;;5052346;28;20041;-38
2023/03/21 02:48:57;;;;;;;40.38;25.95;;;9.90;99.90;;;;;;5051435;28;20053;-37
2023/03/21 02:51:24;;;;;;;39.60;26.58;;;9.90;99.90;;;;;;5048566;28;20102;-38
2023/03/21 02:53:55;;;;;;;35.45;24.90;;;9.80;99.90;;;;;;5065884;28;20048;-37
2023/03/21 02:56:22;;;;;;;46.00;27.30;;;9.90;99.90;;;;;;5051198;28;20049;-37
2023/03/21 02:58:48;;;;;;;36.95;26.45;;;9.90;99.90;;;;;;5051402;28;20056;-37
2023/03/21 03:01:15;;;;;;;34.33;24.98;;;9.90;99.90;;;;;;5055979;28;20045;-37
2023/03/21 03:03:42;;;;;;;39.85;25.45;;;9.90;99.90;;;;;;5050973;28;20049;-37
2023/03/21 03:06:16;;;;;;;36.65;24.08;;;9.90;99.90;;;;;;5050002;28;20059;-37
2023/03/21 03:08:43;;;;;;;31.52;22.00;;;9.90;99.90;;;;;;5050423;28;20064;-37
2023/03/21 03:11:19;;;;;;;30.58;20.55;;;9.90;99.90;;;;;;5050417;28;20554;-37
2023/03/21 03:13:53;;;;;;;27.80;19.30;;;9.90;99.90;;;;;;5060363;28;20076;-37
2023/03/21 03:16:24;;;;;;;28.85;19.65;;;9.90;99.90;;;;;;5053958;28;20056;-37
2023/03/21 03:18:53;;;;;;;30.93;19.60;;;9.90;99.90;;;;;;5048844;28;20052;-37
2023/03/21 03:21:21;;;;;;;27.27;18.35;;;9.90;99.90;;;;;;5048920;28;20087;-37
2023/03/21 03:23:50;;;;;;;26.50;18.15;;;9.90;99.90;;;;;;5050346;28;20439;-37
2023/03/21 03:26:19;;;;;;;26.92;17.63;;;9.90;99.90;;;;;;5066952;28;20040;-37
2023/03/21 03:28:47;;;;;;;29.45;18.15;;;9.90;99.90;;;;;;5050063;28;20045;-37
2023/03/21 03:31:15;;;;;;;24.48;17.40;;;9.90;99.90;;;;;;5050444;28;20077;-37
2023/03/21 03:33:44;;;;;;;25.83;16.98;;;9.90;99.90;;;;;;5058354;28;20048;-37
2023/03/21 03:36:12;;;;;;;23.52;16.83;;;9.90;99.90;;;;;;5065682;28;20110;-37
2023/03/21 03:38:39;;;;;;;28.25;17.70;;;9.90;99.90;;;;;;5066891;28;20052;-38
2023/03/21 03:41:09;;;;;;;23.67;16.77;;;9.90;99.90;;;;;;5050184;28;20496;-38
2023/03/21 03:43:39;;;;;;;23.35;16.25;;;9.90;99.90;;;;;;5059665;28;20052;-38
2023/03/21 03:46:11;;;;;;;20.90;16.00;;;9.90;99.90;;;;;;5056665;28;20056;-38
2023/03/21 03:48:45;;;;;;;24.17;16.35;;;9.90;99.90;;;;;;5049004;28;20416;-37
2023/03/21 03:51:15;;;;;;;24.88;17.02;;;9.80;99.90;;;;;;5054174;28;20128;-38
2023/03/21 03:53:43;;;;;;;21.83;16.33;;;9.80;99.90;;;;;;5051185;28;20060;-37
2023/03/21 03:56:10;;;;;;;25.92;17.50;;;9.90;99.90;;;;;;5050032;28;20405;-37
2023/03/21 03:58:38;;;;;;;22.70;16.05;;;9.80;99.90;;;;;;5049600;28;20049;-37
2023/03/21 04:01:06;;;;;;;23.30;16.27;;;9.90;99.90;;;;;;5049037;28;20049;-38
2023/03/21 04:03:33;;;;;;;21.75;15.60;;;9.90;99.90;;;;;;5049386;28;20116;-38
2023/03/21 04:06:00;;;;;;;25.80;17.33;;;9.90;99.90;;;;;;5048137;28;20053;-38
2023/03/21 04:08:26;;;;;;;27.38;17.00;;;9.90;99.90;;;;;;5048439;28;20052;-38
2023/03/21 04:10:53;;;;;;;24.48;16.15;;;9.90;99.90;;;;;;5050983;28;20404;-38
2023/03/21 04:13:20;;;;;;;24.60;16.88;;;9.90;99.90;;;;;;5050186;28;20045;-38
2023/03/21 04:15:48;;;;;;;26.75;17.60;;;9.90;99.90;;;;;;5048158;28;20049;-38
2023/03/21 04:18:15;;;;;;;25.00;17.50;;;9.90;99.90;;;;;;5050213;28;20450;-38
2023/03/21 04:20:43;;;;;;;23.00;16.77;;;9.80;99.90;;;;;;5049028;28;20065;-38
2023/03/21 04:23:10;;;;;;;25.92;17.77;;;9.80;99.90;;;;;;5061984;28;20553;-38
2023/03/21 04:25:37;;;;;;;25.92;18.02;;;9.80;99.90;;;;;;5053376;28;20045;-38
2023/03/21 04:28:04;;;;;;;28.25;19.52;;;9.90;99.90;;;;;;5036937;28;20451;-38
2023/03/21 04:30:33;;;;;;;34.00;19.92;;;9.80;99.90;;;;;;5038676;28;20068;-38
2023/03/21 04:33:01;;;;;;;28.70;20.50;;;9.80;99.90;;;;;;5045589;28;20045;-38
2023/03/21 04:35:28;;;;;;;32.22;20.92;;;9.80;99.90;;;;;;5051135;28;20053;-38
2023/03/21 04:37:55;;;;;;;32.80;21.92;;;9.80;99.90;;;;;;5048911;28;20110;-37
2023/03/21 04:40:23;;;;;;;32.95;21.80;;;9.80;99.90;;;;;;5047817;28;20052;-38
2023/03/21 04:42:50;;;;;;;34.75;22.67;;;9.80;99.90;;;;;;5043073;28;20392;-37
2023/03/21 04:45:17;;;;;;;31.10;22.20;;;9.80;99.90;;;;;;5040235;28;20099;-37
2023/03/21 04:47:44;;;;;;;36.15;22.95;;;9.80;99.90;;;;;;5038701;28;20063;-37
2023/03/21 04:50:12;;;;;;;32.78;21.95;;;9.80;99.90;;;;;;5050942;28;20045;-37
2023/03/21 04:52:39;;;;;;;32.72;22.25;;;9.80;99.90;;;;;;5050753;28;20405;-37
2023/03/21 04:55:09;;;;;;;29.40;21.50;;;9.80;99.90;;;;;;5051742;28;20053;-37
2023/03/21 04:57:37;;;;;;;36.40;23.25;;;9.80;99.90;;;;;;5052615;28;20045;-38
2023/03/21 05:00:08;;;;;;;34.22;24.08;;;9.80;99.90;;;;;;5054855;28;20057;-37
2023/03/21 05:02:35;;;;;;;36.67;24.30;;;9.90;99.90;;;;;;5034228;28;20384;-37
2023/03/21 05:05:02;;;;;;;33.50;24.10;;;9.80;99.90;;;;;;5049546;28;20053;-38
2023/03/21 05:07:31;;;;;;;36.92;24.85;;;9.80;99.90;;;;;;5052363;28;20481;-37
2023/03/21 05:09:58;;;;;;;36.28;25.92;;;9.80;99.90;;;;;;5049441;28;20107;-38
2023/03/21 05:12:25;;;;;;;34.10;23.55;;;9.80;99.90;;;;;;5045595;28;20068;-38
2023/03/21 05:14:52;;;;;;;37.72;24.23;;;9.80;99.90;;;;;;5055966;28;20060;-38
2023/03/21 05:17:21;;;;;;;38.22;25.55;;;9.80;99.90;;;;;;5054188;28;20468;-38
2023/03/21 05:19:49;;;;;;;30.15;23.48;;;9.80;99.90;;;;;;5048301;28;20045;-38
2023/03/21 05:22:18;;;;;;;36.50;25.58;;;9.80;99.90;;;;;;5049318;28;20072;-37
2023/03/21 05:24:49;;;;;;;38.35;24.33;;;9.80;99.90;;;;;;5052065;28;20464;-38
2023/03/21 05:27:33;;;;;;;35.83;25.43;;;9.80;99.90;;;;;;5067574;28;20060;-39
2023/03/21 05:30:00;;;;;;;33.67;24.50;;;9.80;99.90;;;;;;5056765;28;20481;-39
2023/03/21 05:32:27;;;;;;;36.30;25.98;;;9.80;99.90;;;;;;5056331;28;20049;-38
2023/03/21 05:34:55;;;;;;;36.83;26.00;;;9.80;99.90;;;;;;5046203;28;20052;-39
2023/03/21 05:37:21;;;;;;;36.65;25.67;;;9.80;99.90;;;;;;5039040;28;20044;-39
2023/03/21 05:39:50;;;;;;;34.40;25.52;;;9.80;99.90;;;;;;5065432;28;20055;-38
2023/03/21 05:42:17;;;;;;;40.55;26.00;;;9.80;99.90;;;;;;5033071;28;20473;-39
2023/03/21 05:44:44;;;;;;;38.63;26.52;;;9.80;99.90;;;;;;5051164;28;20051;-39
2023/03/21 05:47:11;;;;;;;34.78;24.58;;;9.80;99.90;;;;;;5052024;28;20448;-39
2023/03/21 05:49:38;;;;;;;38.22;25.67;;;9.80;99.90;;;;;;5052192;28;20480;-38
2023/03/21 05:52:05;;;;;;;37.03;26.30;;;9.80;99.90;;;;;;5051820;28;20057;-39
2023/03/21 05:54:32;;;;;;;34.60;24.48;;;9.80;99.90;;;;;;5051619;28;20049;-39
2023/03/21 05:57:00;;;;;;;36.88;25.85;;;9.80;99.90;;;;;;5053911;28;20106;-39
2023/03/21 05:59:27;;;;;;;38.92;26.40;;;9.80;99.90;;;;;;5045038;28;20115;-39
2023/03/21 06:01:53;;;;;;;37.70;25.77;;;9.80;99.90;;;;;;5050779;28;20045;-39
2023/03/21 06:04:20;;;;;;;35.67;24.35;;;9.80;99.90;;;;;;5050428;28;20084;-39
2023/03/21 06:06:47;;;;;;;36.97;25.52;;;9.80;99.90;;;;;;5058711;28;20099;-39
2023/03/21 06:09:14;;;;;;;38.00;25.63;;;9.80;99.90;;;;;;5046841;28;20049;-38
2023/03/21 06:11:42;;;;;;;38.05;25.02;;;9.80;99.90;;;;;;5064753;28;20437;-38
2023/03/21 06:14:10;;;;;;;34.38;25.30;;;9.80;99.90;;;;;;5052165;28;20048;-39
2023/03/21 06:16:37;;;;;;;35.78;25.42;;;9.80;99.90;;;;;;5043242;28;20049;-39
2023/03/21 06:19:04;;;;;;;33.92;24.45;;;9.80;99.90;;;;;;5049341;28;20077;-38
2023/03/21 06:21:31;;;;;;;40.00;27.05;;;9.80;99.90;;;;;;5045134;28;20051;-39
2023/03/21 06:23:58;;;;;;;38.85;27.85;;;9.80;99.90;;;;;;5053742;28;20110;-38
2023/03/21 06:26:24;;;;;;;40.47;28.15;;;9.80;99.90;;;;;;5046815;28;20056;-39
2023/03/21 06:28:51;;;;;;;38.38;26.70;;;9.80;99.90;;;;;;5049561;28;20060;-38
2023/03/21 06:31:21;;;;;;;38.97;27.48;;;9.80;99.90;;;;;;5051761;28;20135;-39
2023/03/21 06:33:48;;;;;;;39.38;26.38;;;9.80;99.90;;;;;;5056002;28;20044;-39
2023/03/21 06:36:15;;;;;;;35.95;25.92;;;9.80;99.90;;;;;;5049568;28;20390;-39
2023/03/21 06:38:42;;;;;;;38.00;25.00;;;9.80;99.90;;;;;;5047886;28;20045;-38
2023/03/21 06:41:08;;;;;;;29.90;22.73;;;9.90;99.90;;;;;;5048827;28;20056;-38
2023/03/21 06:43:35;;;;;;;32.05;22.40;;;9.90;99.90;;;;;;5049888;28;20389;-39
2023/03/21 06:46:02;;;;;;;31.23;21.20;;;9.90;99.90;;;;;;5048538;28;20299;-38
2023/03/21 06:48:33;;;;;;;32.10;21.60;;;9.90;99.90;;;;;;5052374;28;20124;-38
2023/03/21 06:51:00;;;;;;;28.52;20.58;;;9.90;99.90;;;;;;5061013;28;20087;-39
2023/03/21 06:53:27;;;;;;;25.88;18.67;;;9.90;99.90;;;;;;5062158;28;20052;-38
2023/03/21 06:55:54;;;;;;;24.17;17.08;;;9.90;99.90;;;;;;5057821;28;20057;-38
2023/03/21 06:58:20;;;;;;;26.23;17.98;;;9.90;99.90;;;;;;5052177;28;20052;-38
2023/03/21 07:00:47;;;;;;;22.63;16.10;;;9.90;99.90;;;;;;5059661;28;20052;-38
2023/03/21 07:03:14;;;;;;;18.65;14.52;;;9.90;99.90;;;;;;5044488;28;20049;-38
2023/03/21 07:05:43;;;;;;;21.83;15.02;;;9.90;99.90;;;;;;5055887;28;20110;-38
2023/03/21 07:08:10;;;;;;;18.92;14.10;;;9.90;99.90;;;;;;5040081;28;20052;-37
2023/03/21 07:10:38;;;;;;;19.30;14.35;;;9.90;99.90;;;;;;5053044;28;20044;-38
2023/03/21 07:13:05;;;;;;;23.30;14.88;;;9.90;99.90;;;;;;5049743;28;20443;-38
2023/03/21 07:15:33;;;;;;;20.75;15.30;;;10.00;99.90;;;;;;5051077;28;20045;-38
2023/03/21 07:18:00;;;;;;;19.27;14.07;;;9.90;99.90;;;;;;5064458;28;20124;-37
2023/03/21 07:20:27;;;;;;;20.95;15.10;;;10.00;99.90;;;;;;5051210;28;20114;-37
2023/03/21 07:22:55;;;;;;;21.20;15.77;;;10.00;99.90;;;;;;5052164;28;20325;-37
2023/03/21 07:25:22;;;;;;;20.67;15.40;;;10.00;99.90;;;;;;5049474;28;20366;-37
2023/03/21 07:27:49;;;;;;;20.50;14.93;;;10.00;99.90;;;;;;5066664;28;20048;-37
2023/03/21 07:30:16;;;;;;;20.38;14.50;;;10.00;99.90;;;;;;5070025;28;20045;-37
2023/03/21 07:32:44;;;;;;;21.27;15.45;;;10.00;99.90;;;;;;5055604;28;20376;-37
2023/03/21 07:35:12;;;;;;;20.48;15.73;;;10.00;99.90;;;;;;5063214;28;20419;-37
2023/03/21 07:37:39;;;;;;;22.02;16.15;;;10.00;99.90;;;;;;5056886;28;20068;-38
2023/03/21 07:40:09;;;;;;;20.17;15.60;;;10.00;99.90;;;;;;5064527;28;20052;-37
2023/03/21 07:42:36;;;;;;;23.48;17.08;;;10.00;99.90;;;;;;5062736;28;20049;-37
2023/03/21 07:45:03;;;;;;;21.13;15.98;;;10.00;99.90;;;;;;5051256;28;20059;-37
2023/03/21 07:47:30;;;;;;;22.80;17.63;;;10.00;99.90;;;;;;5051896;28;20045;-38
2023/03/21 07:49:57;;;;;;;25.30;17.58;;;10.00;99.90;;;;;;5051850;28;20060;-38
2023/03/21 07:52:24;;;;;;;22.38;17.25;;;10.00;99.90;;;;;;5050495;28;20049;-37
2023/03/21 07:54:51;;;;;;;22.35;16.70;;;10.00;99.90;;;;;;5050592;28;20072;-37
2023/03/21 07:57:19;;;;;;;20.80;15.55;;;10.00;99.90;;;;;;5050715;28;20442;-38
2023/03/21 07:59:46;;;;;;;21.58;16.20;;;10.00;99.90;;;;;;5050527;28;20061;-37
2023/03/21 08:02:13;;;;;;;20.73;16.02;;;10.00;99.90;;;;;;5048871;28;20106;-38
2023/03/21 08:04:40;;;;;;;20.90;15.57;;;10.00;99.90;;;;;;5051633;28;20045;-37
2023/03/21 08:07:07;;;;;;;20.38;15.75;;;10.10;99.90;;;;;;5050715;28;20056;-37
2023/03/21 08:09:35;;;;;;;20.88;15.38;;;10.10;99.90;;;;;;5050414;28;20053;-37
2023/03/21 08:12:01;;;;;;;18.55;14.20;;;10.10;99.90;;;;;;5051331;28;20409;-38
2023/03/21 08:14:30;;;;;;;18.98;15.32;;;10.10;99.90;;;;;;5050783;28;20099;-38
2023/03/21 08:16:56;;;;;;;18.15;13.75;;;10.10;99.90;;;;;;5050187;28;20056;-38
2023/03/21 08:19:23;;;;;;;19.20;14.55;;;10.10;99.90;;;;;;5051518;28;20123;-38
2023/03/21 08:21:50;;;;;;;18.45;13.98;;;10.10;99.90;;;;;;5052312;28;20091;-38
2023/03/21 08:24:17;;;;;;;20.90;15.82;;;10.10;99.90;;;;;;5055128;28;20540;-37
2023/03/21 08:26:44;;;;;;;22.25;15.98;;;10.10;99.90;;;;;;5055252;28;20107;-38
2023/03/21 08:29:11;;;;;;;22.98;16.42;;;10.10;99.90;;;;;;5053861;28;20111;-38
2023/03/21 08:31:41;;;;;;;25.05;16.65;;;10.10;99.90;;;;;;5070424;28;20052;-38
2023/03/21 08:34:07;;;;;;;21.55;16.23;;;10.20;99.90;;;;;;5054257;28;20071;-38
2023/03/21 08:36:35;;;;;;;25.27;17.10;;;10.20;99.90;;;;;;5054245;28;20057;-38
2023/03/21 08:39:04;;;;;;;25.05;16.83;;;10.20;99.90;;;;;;5054917;28;20053;-38
2023/03/21 08:41:31;;;;;;;27.85;17.75;;;10.20;99.90;;;;;;5054043;28;20393;-38
2023/03/21 08:43:57;;;;;;;26.58;17.17;;;10.20;99.90;;;;;;5054141;28;20053;-38
2023/03/21 08:46:25;;;;;;;25.45;17.58;;;10.20;99.90;;;;;;5052901;28;20049;-38
2023/03/21 08:48:53;;;;;;;25.83;16.65;;;10.20;99.90;;;;;;5053824;28;20484;-38
2023/03/21 08:51:20;;;;;;;31.30;17.75;;;10.20;99.90;;;;;;5053798;28;20480;-38
2023/03/21 08:53:48;;;;;;;28.70;18.20;;;10.20;99.90;;;;;;5054466;28;20489;-38
2023/03/21 08:56:15;;;;;;;31.40;18.15;;;10.20;99.90;;;;;;5053713;28;20049;-38
2023/03/21 08:58:43;;;;;;;29.17;17.80;;;10.20;99.90;;;;;;5053744;28;20105;-38
2023/03/21 09:01:10;;;;;;;28.25;18.70;;;10.30;99.90;;;;;;5051039;28;20481;-38
2023/03/21 09:03:37;;;;;;;32.95;19.42;;;10.20;99.90;;;;;;5061522;28;20413;-38
2023/03/21 09:06:09;;;;;;;30.83;19.15;;;10.30;99.90;;;;;;5061771;28;20507;-38
2023/03/21 09:08:36;;;;;;;36.67;19.70;;;10.20;99.90;;;;;;5071069;28;20055;-37
2023/03/21 09:11:03;;;;;;;32.78;19.95;;;10.20;99.90;;;;;;5069537;28;20068;-38
2023/03/21 09:13:29;;;;;;;33.05;19.90;;;10.20;99.90;;;;;;5059731;28;20056;-37
2023/03/21 09:16:00;;;;;;;37.35;22.67;;;10.20;99.90;;;;;;5053320;28;20073;-37
2023/03/21 09:18:37;;;;;;;33.88;20.17;;;10.10;99.90;;;;;;5054393;28;20057;-37
2023/03/21 09:21:11;;;;;;;34.10;21.58;;;10.20;99.90;;;;;;5054716;28;20060;-37
2023/03/21 09:23:38;;;;;;;35.80;21.75;;;10.20;99.90;;;;;;5069186;28;20046;-37
2023/03/21 09:26:06;;;;;;;40.58;23.50;;;10.10;99.90;;;;;;5058218;28;20053;-37
2023/03/21 09:28:33;;;;;;;39.33;21.17;;;10.20;99.90;;;;;;5052857;28;20045;-37
2023/03/21 09:31:01;;;;;;;36.10;21.50;;;10.10;99.90;;;;;;5053216;28;20052;-37
2023/03/21 09:33:28;;;;;;;36.75;21.02;;;10.20;99.90;;;;;;5052278;28;20107;-37
2023/03/21 09:35:56;;;;;;;40.47;22.77;;;10.10;99.90;;;;;;5053939;28;20111;-37
2023/03/21 09:38:29;;;;;;;37.00;20.58;;;10.10;99.90;;;;;;5054214;28;20137;-37
2023/03/21 09:41:01;;;;;;;38.80;20.95;;;10.10;99.90;;;;;;5053813;28;20501;-37
2023/03/21 09:43:37;;;;;;;37.88;21.35;;;10.10;99.90;;;;;;5052869;28;20089;-37
2023/03/21 09:46:06;;;;;;;38.05;19.65;;;10.10;99.90;;;;;;5052189;28;20064;-37
2023/03/21 09:48:35;;;;;;;35.30;19.20;;;10.10;99.90;;;;;;5032848;28;20095;-37
2023/03/21 09:51:03;;;;;;;42.03;20.45;;;10.10;99.90;;;;;;5049431;28;20437;-37
2023/03/21 09:53:34;;;;;;;35.92;19.98;;;10.10;99.90;;;;;;5048818;28;20059;-37
2023/03/21 09:56:01;;;;;;;36.70;20.67;;;10.10;99.90;;;;;;5049483;28;20056;-36
2023/03/21 09:58:30;;;;;;;38.33;21.20;;;10.10;99.90;;;;;;5067707;28;20387;-37
2023/03/21 10:00:59;;;;;;;38.45;21.00;;;10.10;99.90;;;;;;5052621;28;20057;-37
2023/03/21 10:03:29;;;;;;;36.35;20.05;;;10.10;99.90;;;;;;5053376;28;20088;-37
2023/03/21 10:05:57;;;;;;;33.78;18.85;;;10.10;99.90;;;;;;5053384;28;20053;-37
2023/03/21 10:08:26;;;;;;;31.27;17.65;;;10.20;99.90;;;;;;5053113;28;20091;-38
2023/03/21 10:10:55;;;;;;;31.60;18.75;;;10.10;99.90;;;;;;5051663;28;20128;-37
2023/03/21 10:13:25;;;;;;;34.92;19.92;;;10.20;99.90;;;;;;5052309;28;20093;-38
2023/03/21 10:15:52;;;;;;;40.33;20.40;;;10.20;99.90;;;;;;5053146;28;20052;-37
2023/03/21 10:18:22;;;;;;;35.13;19.58;;;10.30;99.90;;;;;;5052018;28;20053;-37
2023/03/21 10:20:49;;;;;;;36.38;19.17;;;10.30;99.90;;;;;;5051560;28;20488;-38
2023/03/21 10:23:16;;;;;;;38.15;21.15;;;10.40;99.90;;;;;;5053234;28;20106;-37
2023/03/21 10:25:45;;;;;;;37.63;19.10;;;10.40;99.90;;;;;;5050644;28;20061;-37
2023/03/21 10:28:15;;;;;;;30.55;19.38;;;10.40;99.90;;;;;;5052836;28;20524;-37
2023/03/21 10:30:44;;;;;;;32.40;19.55;;;10.40;99.90;;;;;;5052801;28;20073;-37
2023/03/21 10:33:13;;;;;;;34.92;19.58;;;10.50;99.90;;;;;;5051481;28;20045;-37
2023/03/21 10:35:40;;;;;;;29.65;16.73;;;10.50;99.90;;;;;;5052854;28;20057;-36
2023/03/21 10:38:10;;;;;;;31.88;17.45;;;10.60;99.90;;;;;;5050753;28;20061;-36
2023/03/21 10:40:37;;;;;;;36.08;17.33;;;10.60;99.90;;;;;;5051733;28;20049;-37
2023/03/21 10:43:19;;;;;;;34.28;17.65;;;10.60;99.90;;;;;;5051303;28;20053;-37
2023/03/21 10:45:46;;;;;;;30.00;16.00;;;10.70;99.90;;;;;;5068280;28;20057;-37
2023/03/21 10:48:13;;;;;;;34.28;16.92;;;10.70;99.90;;;;;;5051543;28;20049;-38
2023/03/21 10:50:40;;;;;;;32.00;17.23;;;10.70;99.90;;;;;;5051970;28;20053;-38
2023/03/21 10:53:14;;;;;;;28.10;16.00;;;10.80;99.90;;;;;;5031380;28;20103;-37
2023/03/21 10:55:41;;;;;;;33.42;16.60;;;10.80;99.90;;;;;;5031618;28;20583;-37
2023/03/21 10:58:09;;;;;;;31.98;15.88;;;10.80;99.90;;;;;;5031317;28;20111;-37
2023/03/21 11:00:40;;;;;;;30.95;16.33;;;10.90;99.90;;;;;;5032377;28;20096;-37
2023/03/21 11:03:06;;;;;;;27.55;16.50;;;10.90;99.90;;;;;;5032657;28;20449;-37
2023/03/21 11:05:35;;;;;;;36.97;16.10;;;11.00;99.90;;;;;;5040302;28;20091;-37
2023/03/21 11:08:03;;;;;;;35.40;19.13;;;11.00;99.90;;;;;;5051564;28;20416;-37
2023/03/21 11:10:31;;;;;;;31.95;17.52;;;11.10;99.90;;;;;;5051182;28;20302;-37
2023/03/21 11:12:59;;;;;;;27.52;16.15;;;11.20;99.90;;;;;;5050486;28;20068;-37
2023/03/21 11:15:29;;;;;;;29.10;15.68;;;11.20;99.90;;;;;;5050619;28;20112;-37
2023/03/21 11:17:57;;;;;;;29.40;15.48;;;11.30;99.90;;;;;;5050253;28;20045;-37
2023/03/21 11:20:30;;;;;;;29.08;15.60;;;11.40;99.90;;;;;;5051009;28;20057;-36
2023/03/21 11:22:57;;;;;;;29.33;14.90;;;11.40;99.90;;;;;;5052026;28;20103;-36
2023/03/21 11:25:27;;;;;;;30.60;15.02;;;11.50;99.90;;;;;;5050845;28;20122;-36
2023/03/21 11:27:54;;;;;;;30.92;16.70;;;11.60;99.90;;;;;;5067355;28;20056;-36
2023/03/21 11:30:22;;;;;;;25.10;14.02;;;11.70;99.90;;;;;;5050259;28;20170;-36
2023/03/21 11:32:51;;;;;;;22.52;13.77;;;11.70;99.90;;;;;;5050026;28;20147;-36
2023/03/21 11:35:21;;;;;;;28.40;14.15;;;11.80;99.90;;;;;;5052072;28;20414;-36
2023/03/21 11:37:52;;;;;;;23.80;12.40;;;11.80;99.90;;;;;;5050956;28;20056;-36
2023/03/21 11:40:20;;;;;;;22.67;12.25;;;11.90;99.90;;;;;;5050757;28;20060;-36
2023/03/21 11:42:48;;;;;;;20.67;12.93;;;11.80;99.90;;;;;;5051656;28;20049;-36
2023/03/21 11:45:16;;;;;;;24.13;11.82;;;11.80;99.90;;;;;;5051133;28;20451;-36
2023/03/21 11:47:44;;;;;;;19.83;11.65;;;11.80;99.90;;;;;;5050781;28;20111;-36
2023/03/21 11:50:20;;;;;;;23.35;12.02;;;11.80;99.90;;;;;;5050845;28;20049;-36
2023/03/21 11:53:12;;;;;;;19.73;10.88;;;11.80;99.90;;;;;;5051718;28;20052;-36
2023/03/21 11:55:45;;;;;;;21.52;11.52;;;11.90;99.90;;;;;;5052202;28;20060;-36
2023/03/21 11:58:30;;;;;;;23.25;11.50;;;11.80;99.90;;;;;;5054868;28;20427;-36
2023/03/21 12:01:02;;;;;;;20.60;10.95;;;11.90;99.90;;;;;;5033226;28;20456;-36
2023/03/21 12:03:49;;;;;;;18.92;10.85;;;11.90;99.90;;;;;;5035703;28;20055;-36
2023/03/21 12:06:22;;;;;;;20.05;10.95;;;12.00;99.90;;;;;;5035975;28;20053;-35
2023/03/21 12:08:54;;;;;;;18.88;10.18;;;12.20;99.90;;;;;;5034512;28;20061;-36
2023/03/21 12:11:24;;;;;;;;;;;12.20;99.90;;;;;;5035108;28;20053;-36
2023/03/21 12:13:56;;;;;;;19.75;9.32;;;12.20;99.90;;;;;;5041529;28;19972;-36
2023/03/21 12:16:30;;;;;;;17.88;9.10;;;12.20;99.90;;;;;;5054432;28;20057;-36
2023/03/21 12:19:08;;;;;;;17.80;9.55;;;12.20;99.90;;;;;;5054792;28;20104;-36
2023/03/21 12:21:39;;;;;;;17.52;10.20;;;12.20;99.90;;;;;;5055317;28;20055;-35
2023/03/21 12:24:07;;;;;;;18.30;9.70;;;12.20;99.90;;;;;;5055322;28;20056;-36
2023/03/21 12:26:37;;;;;;;19.80;9.25;;;12.20;99.90;;;;;;5055112;28;20157;-36
2023/03/21 12:29:19;;;;;;;16.40;9.83;;;12.10;99.90;;;;;;5054435;28;20344;-35
2023/03/21 12:31:56;;;;;;;17.00;9.02;;;12.10;99.90;;;;;;5055078;28;20057;-35
2023/03/21 12:34:31;;;;;;;16.77;9.95;;;12.10;99.90;;;;;;5055019;28;20049;-36
2023/03/21 12:37:07;;;;;;;18.73;8.95;;;12.00;99.90;;;;;;5053693;28;20111;-36
2023/03/21 12:39:35;;;;;;;17.05;9.98;;;12.00;99.90;;;;;;5054771;28;20048;-35
2023/03/21 12:42:30;;;;;;;20.77;9.88;;;12.00;99.90;;;;;;5053214;28;20400;-35